Weston, Texas
Current Conditions -  °F | °C
As of 1:53 PM on Friday 19 Dec 2014 (Local Time) from KTKI Reporting Station
Haze Haze  
Wind Chill: 44°   Ceiling: 600
Heat Index: 48°   Visibility: 5mi
Dew Point: 45°   Wind: 8mph
Humidity: 89%   Direction: 40°NE
Pressure: 30.15"   Gusts: NA
Location:  33.35°N, 96.67°W
Report Text: KTKI 191953Z 04007KT 5SM BR OVC006 09/07 A3015 RMK AO2 SLP220 T00890072
Loading
Personal Weather Stations






























Interactive Weather Map New forecast layout! Learn more

10-Day Weather Forecast

Advertisements
Track Severe Weather on mobile